sensor_id;sensor_type;location;lat;lon;timestamp;P1;durP1;ratioP1;P2;durP2;ratioP2
50104;SDS011;47690;39.202;-77.198;2022-11-20T00:01:06;2.25;;;1.90;;
50104;SDS011;47690;39.202;-77.198;2022-11-20T00:04:10;1.80;;;1.70;;
50104;SDS011;47690;39.202;-77.198;2022-11-20T00:07:18;1.83;;;1.70;;
50104;SDS011;47690;39.202;-77.198;2022-11-20T00:10:23;1.80;;;1.70;;
50104;SDS011;47690;39.202;-77.198;2022-11-20T00:13:27;1.80;;;1.65;;
50104;SDS011;47690;39.202;-77.198;2022-11-20T00:16:31;2.38;;;1.88;;
50104;SDS011;47690;39.202;-77.198;2022-11-20T00:19:54;2.13;;;1.90;;
50104;SDS011;47690;39.202;-77.198;2022-11-20T00:26:30;1.67;;;1.58;;
50104;SDS011;47690;39.202;-77.198;2022-11-20T00:29:32;1.85;;;1.73;;
50104;SDS011;47690;39.202;-77.198;2022-11-20T00:32:38;1.90;;;1.80;;
50104;SDS011;47690;39.202;-77.198;2022-11-20T00:35:42;2.00;;;1.80;;
50104;SDS011;47690;39.202;-77.198;2022-11-20T00:38:55;2.65;;;1.83;;
50104;SDS011;47690;39.202;-77.198;2022-11-20T00:42:03;2.50;;;1.90;;
50104;SDS011;47690;39.202;-77.198;2022-11-20T00:49:18;2.08;;;1.75;;
50104;SDS011;47690;39.202;-77.198;2022-11-20T00:52:23;2.55;;;1.88;;
50104;SDS011;47690;39.202;-77.198;2022-11-20T00:55:32;2.08;;;1.90;;
50104;SDS011;47690;39.202;-77.198;2022-11-20T00:59:03;1.70;;;1.60;;
50104;SDS011;47690;39.202;-77.198;2022-11-20T01:02:03;2.30;;;2.00;;
50104;SDS011;47690;39.202;-77.198;2022-11-20T01:05:02;2.33;;;1.90;;
50104;SDS011;47690;39.202;-77.198;2022-11-20T01:08:12;2.47;;;2.00;;
50104;SDS011;47690;39.202;-77.198;2022-11-20T01:11:33;1.85;;;1.65;;
50104;SDS011;47690;39.202;-77.198;2022-11-20T01:14:43;1.80;;;1.70;;
50104;SDS011;47690;39.202;-77.198;2022-11-20T01:17:50;2.10;;;1.73;;
50104;SDS011;47690;39.202;-77.198;2022-11-20T01:21:07;2.10;;;1.90;;
50104;SDS011;47690;39.202;-77.198;2022-11-20T01:24:18;1.70;;;1.60;;
50104;SDS011;47690;39.202;-77.198;2022-11-20T01:27:32;1.92;;;1.70;;
50104;SDS011;47690;39.202;-77.198;2022-11-20T01:35:15;1.63;;;1.50;;
50104;SDS011;47690;39.202;-77.198;2022-11-20T01:44:15;1.80;;;1.70;;
50104;SDS011;47690;39.202;-77.198;2022-11-20T01:47:43;1.80;;;1.70;;
50104;SDS011;47690;39.202;-77.198;2022-11-20T01:50:46;2.13;;;1.92;;
50104;SDS011;47690;39.202;-77.198;2022-11-20T01:53:55;1.92;;;1.52;;
50104;SDS011;47690;39.202;-77.198;2022-11-20T01:57:28;1.85;;;1.70;;
50104;SDS011;47690;39.202;-77.198;2022-11-20T02:01:31;2.00;;;1.80;;
50104;SDS011;47690;39.202;-77.198;2022-11-20T02:04:38;1.83;;;1.73;;
50104;SDS011;47690;39.202;-77.198;2022-11-20T02:07:44;2.38;;;1.90;;
50104;SDS011;47690;39.202;-77.198;2022-11-20T02:10:50;2.03;;;1.83;;
50104;SDS011;47690;39.202;-77.198;2022-11-20T02:13:54;2.15;;;1.90;;
50104;SDS011;47690;39.202;-77.198;2022-11-20T02:16:59;1.90;;;1.80;;
50104;SDS011;47690;39.202;-77.198;2022-11-20T02:20:07;2.08;;;1.90;;
50104;SDS011;47690;39.202;-77.198;2022-11-20T02:27:23;2.00;;;1.80;;
50104;SDS011;47690;39.202;-77.198;2022-11-20T02:30:22;3.65;;;2.20;;
50104;SDS011;47690;39.202;-77.198;2022-11-20T02:33:23;2.65;;;2.03;;
50104;SDS011;47690;39.202;-77.198;2022-11-20T02:36:27;2.65;;;2.15;;
50104;SDS011;47690;39.202;-77.198;2022-11-20T02:39:44;2.10;;;1.90;;
50104;SDS011;47690;39.202;-77.198;2022-11-20T02:50:04;2.30;;;2.00;;
50104;SDS011;47690;39.202;-77.198;2022-11-20T02:53:16;2.08;;;1.88;;
50104;SDS011;47690;39.202;-77.198;2022-11-20T02:56:31;3.03;;;2.10;;
50104;SDS011;47690;39.202;-77.198;2022-11-20T03:00:12;2.53;;;2.13;;
50104;SDS011;47690;39.202;-77.198;2022-11-20T03:32:34;2.60;;;2.30;;
50104;SDS011;47690;39.202;-77.198;2022-11-20T03:41:56;3.60;;;2.38;;
50104;SDS011;47690;39.202;-77.198;2022-11-20T03:47:14;3.58;;;2.65;;
50104;SDS011;47690;39.202;-77.198;2022-11-20T03:58:09;3.20;;;2.40;;
50104;SDS011;47690;39.202;-77.198;2022-11-20T04:07:39;2.92;;;2.20;;
50104;SDS011;47690;39.202;-77.198;2022-11-20T04:10:50;4.82;;;2.60;;
50104;SDS011;47690;39.202;-77.198;2022-11-20T04:14:02;3.42;;;2.50;;
50104;SDS011;47690;39.202;-77.198;2022-11-20T04:17:12;3.28;;;2.45;;
50104;SDS011;47690;39.202;-77.198;2022-11-20T04:20:24;4.38;;;2.60;;
50104;SDS011;47690;39.202;-77.198;2022-11-20T04:24:32;3.85;;;2.78;;
50104;SDS011;47690;39.202;-77.198;2022-11-20T04:27:32;4.60;;;3.38;;
50104;SDS011;47690;39.202;-77.198;2022-11-20T04:30:47;4.60;;;3.28;;
50104;SDS011;47690;39.202;-77.198;2022-11-20T04:34:14;5.10;;;3.17;;
50104;SDS011;47690;39.202;-77.198;2022-11-20T04:44:42;4.43;;;2.70;;
50104;SDS011;47690;39.202;-77.198;2022-11-20T04:47:54;3.92;;;3.00;;
50104;SDS011;47690;39.202;-77.198;2022-11-20T04:51:15;5.05;;;3.40;;
50104;SDS011;47690;39.202;-77.198;2022-11-20T04:55:03;3.85;;;2.70;;
50104;SDS011;47690;39.202;-77.198;2022-11-20T04:58:15;4.65;;;2.95;;
50104;SDS011;47690;39.202;-77.198;2022-11-20T05:01:55;3.50;;;2.80;;
50104;SDS011;47690;39.202;-77.198;2022-11-20T05:06:00;4.72;;;3.00;;
50104;SDS011;47690;39.202;-77.198;2022-11-20T05:10:00;4.65;;;3.00;;
50104;SDS011;47690;39.202;-77.198;2022-11-20T05:54:21;4.22;;;2.90;;
50104;SDS011;47690;39.202;-77.198;2022-11-20T05:59:34;4.00;;;2.92;;
50104;SDS011;47690;39.202;-77.198;2022-11-20T06:10:03;3.83;;;2.67;;
50104;SDS011;47690;39.202;-77.198;2022-11-20T06:15:24;5.00;;;3.22;;
50104;SDS011;47690;39.202;-77.198;2022-11-20T06:20:29;4.80;;;2.90;;
50104;SDS011;47690;39.202;-77.198;2022-11-20T06:25:24;2.88;;;2.30;;
50104;SDS011;47690;39.202;-77.198;2022-11-20T06:47:19;1.98;;;1.88;;
50104;SDS011;47690;39.202;-77.198;2022-11-20T06:51:45;2.10;;;1.80;;
50104;SDS011;47690;39.202;-77.198;2022-11-20T07:02:43;1.75;;;1.65;;
50104;SDS011;47690;39.202;-77.198;2022-11-20T07:13:19;1.88;;;1.75;;
50104;SDS011;47690;39.202;-77.198;2022-11-20T07:17:51;1.67;;;1.58;;
50104;SDS011;47690;39.202;-77.198;2022-11-20T07:23:24;1.65;;;1.55;;
50104;SDS011;47690;39.202;-77.198;2022-11-20T07:28:43;2.15;;;1.35;;
50104;SDS011;47690;39.202;-77.198;2022-11-20T07:33:15;1.50;;;1.40;;
50104;SDS011;47690;39.202;-77.198;2022-11-20T07:38:18;3.03;;;1.60;;
50104;SDS011;47690;39.202;-77.198;2022-11-20T07:43:13;2.17;;;1.80;;
50104;SDS011;47690;39.202;-77.198;2022-11-20T07:52:24;1.77;;;1.67;;
50104;SDS011;47690;39.202;-77.198;2022-11-20T08:01:34;1.60;;;1.50;;
50104;SDS011;47690;39.202;-77.198;2022-11-20T08:06:44;1.77;;;1.67;;
50104;SDS011;47690;39.202;-77.198;2022-11-20T08:17:45;1.55;;;1.45;;
50104;SDS011;47690;39.202;-77.198;2022-11-20T08:25:26;1.60;;;1.50;;
50104;SDS011;47690;39.202;-77.198;2022-11-20T08:36:12;1.35;;;1.35;;
50104;SDS011;47690;39.202;-77.198;2022-11-20T08:40:09;1.50;;;1.40;;
50104;SDS011;47690;39.202;-77.198;2022-11-20T08:43:34;1.73;;;1.63;;
50104;SDS011;47690;39.202;-77.198;2022-11-20T08:46:46;1.70;;;1.60;;
50104;SDS011;47690;39.202;-77.198;2022-11-20T08:49:51;2.05;;;1.70;;
50104;SDS011;47690;39.202;-77.198;2022-11-20T08:53:01;1.70;;;1.60;;
50104;SDS011;47690;39.202;-77.198;2022-11-20T08:56:11;1.65;;;1.55;;
50104;SDS011;47690;39.202;-77.198;2022-11-20T08:59:15;1.63;;;1.52;;
50104;SDS011;47690;39.202;-77.198;2022-11-20T09:02:39;1.70;;;1.60;;
50104;SDS011;47690;39.202;-77.198;2022-11-20T09:05:48;1.77;;;1.67;;
50104;SDS011;47690;39.202;-77.198;2022-11-20T09:08:56;1.70;;;1.60;;
50104;SDS011;47690;39.202;-77.198;2022-11-20T09:12:06;2.40;;;1.55;;
50104;SDS011;47690;39.202;-77.198;2022-11-20T09:15:13;1.80;;;1.70;;
50104;SDS011;47690;39.202;-77.198;2022-11-20T09:18:23;1.65;;;1.55;;
50104;SDS011;47690;39.202;-77.198;2022-11-20T09:22:08;1.63;;;1.52;;
50104;SDS011;47690;39.202;-77.198;2022-11-20T09:25:23;2.47;;;1.90;;
50104;SDS011;47690;39.202;-77.198;2022-11-20T09:28:36;2.47;;;1.65;;
50104;SDS011;47690;39.202;-77.198;2022-11-20T09:31:46;1.70;;;1.60;;
50104;SDS011;47690;39.202;-77.198;2022-11-20T09:34:52;2.30;;;1.88;;
50104;SDS011;47690;39.202;-77.198;2022-11-20T09:38:28;2.00;;;1.80;;
50104;SDS011;47690;39.202;-77.198;2022-11-20T09:56:02;1.75;;;1.65;;
50104;SDS011;47690;39.202;-77.198;2022-11-20T09:59:40;1.92;;;1.83;;
50104;SDS011;47690;39.202;-77.198;2022-11-20T10:03:17;2.10;;;1.90;;
50104;SDS011;47690;39.202;-77.198;2022-11-20T10:06:31;2.00;;;1.80;;
50104;SDS011;47690;39.202;-77.198;2022-11-20T10:10:03;1.85;;;1.75;;
50104;SDS011;47690;39.202;-77.198;2022-11-20T10:31:03;1.70;;;1.60;;
50104;SDS011;47690;39.202;-77.198;2022-11-20T11:19:30;1.70;;;1.60;;
50104;SDS011;47690;39.202;-77.198;2022-11-20T11:24:01;1.90;;;1.80;;
50104;SDS011;47690;39.202;-77.198;2022-11-20T11:35:01;1.90;;;1.80;;
50104;SDS011;47690;39.202;-77.198;2022-11-20T11:38:04;1.95;;;1.80;;
50104;SDS011;47690;39.202;-77.198;2022-11-20T11:41:16;1.90;;;1.80;;
50104;SDS011;47690;39.202;-77.198;2022-11-20T11:44:47;2.03;;;1.85;;
50104;SDS011;47690;39.202;-77.198;2022-11-20T11:48:00;1.73;;;1.63;;
50104;SDS011;47690;39.202;-77.198;2022-11-20T11:51:07;1.70;;;1.60;;
50104;SDS011;47690;39.202;-77.198;2022-11-20T11:54:23;1.90;;;1.80;;
50104;SDS011;47690;39.202;-77.198;2022-11-20T12:02:12;1.70;;;1.60;;
50104;SDS011;47690;39.202;-77.198;2022-11-20T12:05:49;1.92;;;1.70;;
50104;SDS011;47690;39.202;-77.198;2022-11-20T12:09:14;1.98;;;1.77;;
50104;SDS011;47690;39.202;-77.198;2022-11-20T12:13:45;2.17;;;1.77;;
50104;SDS011;47690;39.202;-77.198;2022-11-20T12:16:58;1.85;;;1.70;;
50104;SDS011;47690;39.202;-77.198;2022-11-20T12:20:29;1.77;;;1.67;;
50104;SDS011;47690;39.202;-77.198;2022-11-20T12:39:42;1.48;;;1.40;;
50104;SDS011;47690;39.202;-77.198;2022-11-20T12:42:53;1.67;;;1.58;;
50104;SDS011;47690;39.202;-77.198;2022-11-20T12:46:41;1.70;;;1.60;;
50104;SDS011;47690;39.202;-77.198;2022-11-20T12:53:39;1.60;;;1.50;;
50104;SDS011;47690;39.202;-77.198;2022-11-20T13:00:17;1.50;;;1.50;;
50104;SDS011;47690;39.202;-77.198;2022-11-20T13:03:48;1.52;;;1.40;;
50104;SDS011;47690;39.202;-77.198;2022-11-20T13:07:12;1.67;;;1.58;;
50104;SDS011;47690;39.202;-77.198;2022-11-20T13:20:18;1.70;;;1.60;;
50104;SDS011;47690;39.202;-77.198;2022-11-20T13:23:27;1.80;;;1.70;;
50104;SDS011;47690;39.202;-77.198;2022-11-20T13:26:34;1.65;;;1.55;;
50104;SDS011;47690;39.202;-77.198;2022-11-20T13:36:34;2.17;;;1.73;;
50104;SDS011;47690;39.202;-77.198;2022-11-20T13:39:42;1.75;;;1.65;;
50104;SDS011;47690;39.202;-77.198;2022-11-20T13:42:56;1.77;;;1.67;;
50104;SDS011;47690;39.202;-77.198;2022-11-20T13:46:10;1.73;;;1.63;;
50104;SDS011;47690;39.202;-77.198;2022-11-20T13:49:21;1.90;;;1.80;;
50104;SDS011;47690;39.202;-77.198;2022-11-20T13:56:02;1.90;;;1.80;;
50104;SDS011;47690;39.202;-77.198;2022-11-20T14:07:00;1.90;;;1.80;;
50104;SDS011;47690;39.202;-77.198;2022-11-20T14:10:20;1.83;;;1.73;;
50104;SDS011;47690;39.202;-77.198;2022-11-20T14:13:36;1.83;;;1.73;;
50104;SDS011;47690;39.202;-77.198;2022-11-20T14:20:11;1.70;;;1.60;;
50104;SDS011;47690;39.202;-77.198;2022-11-20T14:26:56;1.85;;;1.75;;
50104;SDS011;47690;39.202;-77.198;2022-11-20T14:30:05;1.80;;;1.70;;
50104;SDS011;47690;39.202;-77.198;2022-11-20T14:33:34;2.00;;;1.65;;
50104;SDS011;47690;39.202;-77.198;2022-11-20T14:36:44;1.73;;;1.63;;
50104;SDS011;47690;39.202;-77.198;2022-11-20T14:39:54;1.80;;;1.70;;
50104;SDS011;47690;39.202;-77.198;2022-11-20T14:46:39;1.80;;;1.70;;
50104;SDS011;47690;39.202;-77.198;2022-11-20T14:50:22;1.80;;;1.70;;
50104;SDS011;47690;39.202;-77.198;2022-11-20T14:53:31;1.80;;;1.70;;
50104;SDS011;47690;39.202;-77.198;2022-11-20T14:56:40;1.80;;;1.70;;
50104;SDS011;47690;39.202;-77.198;2022-11-20T14:59:51;1.63;;;1.60;;
50104;SDS011;47690;39.202;-77.198;2022-11-20T15:03:18;1.60;;;1.50;;
50104;SDS011;47690;39.202;-77.198;2022-11-20T15:06:52;1.75;;;1.65;;
50104;SDS011;47690;39.202;-77.198;2022-11-20T15:10:05;1.80;;;1.70;;
50104;SDS011;47690;39.202;-77.198;2022-11-20T15:16:51;1.70;;;1.60;;
50104;SDS011;47690;39.202;-77.198;2022-11-20T15:20:03;2.13;;;1.93;;
50104;SDS011;47690;39.202;-77.198;2022-11-20T15:27:10;1.83;;;1.73;;
50104;SDS011;47690;39.202;-77.198;2022-11-20T15:30:16;1.60;;;1.50;;
50104;SDS011;47690;39.202;-77.198;2022-11-20T15:33:23;1.83;;;1.73;;
50104;SDS011;47690;39.202;-77.198;2022-11-20T15:36:46;1.70;;;1.60;;
50104;SDS011;47690;39.202;-77.198;2022-11-20T15:39:50;1.80;;;1.70;;
50104;SDS011;47690;39.202;-77.198;2022-11-20T15:42:54;1.80;;;1.70;;
50104;SDS011;47690;39.202;-77.198;2022-11-20T15:46:26;1.50;;;1.50;;
50104;SDS011;47690;39.202;-77.198;2022-11-20T15:49:31;1.70;;;1.60;;
50104;SDS011;47690;39.202;-77.198;2022-11-20T15:52:28;1.70;;;1.60;;
50104;SDS011;47690;39.202;-77.198;2022-11-20T15:55:38;1.80;;;1.70;;
50104;SDS011;47690;39.202;-77.198;2022-11-20T15:58:48;1.92;;;1.83;;
50104;SDS011;47690;39.202;-77.198;2022-11-20T16:02:00;1.90;;;1.80;;
50104;SDS011;47690;39.202;-77.198;2022-11-20T16:05:12;1.70;;;1.60;;
50104;SDS011;47690;39.202;-77.198;2022-11-20T16:08:23;1.70;;;1.60;;
50104;SDS011;47690;39.202;-77.198;2022-11-20T16:11:32;1.77;;;1.65;;
50104;SDS011;47690;39.202;-77.198;2022-11-20T16:14:38;2.00;;;1.80;;
50104;SDS011;47690;39.202;-77.198;2022-11-20T16:18:04;1.60;;;1.50;;
50104;SDS011;47690;39.202;-77.198;2022-11-20T16:21:10;1.95;;;1.73;;
50104;SDS011;47690;39.202;-77.198;2022-11-20T16:24:19;1.55;;;1.48;;
50104;SDS011;47690;39.202;-77.198;2022-11-20T16:27:24;1.65;;;1.55;;
50104;SDS011;47690;39.202;-77.198;2022-11-20T16:30:32;1.80;;;1.70;;
50104;SDS011;47690;39.202;-77.198;2022-11-20T16:33:36;2.28;;;2.00;;
50104;SDS011;47690;39.202;-77.198;2022-11-20T16:36:42;2.05;;;1.95;;
50104;SDS011;47690;39.202;-77.198;2022-11-20T16:39:47;1.95;;;1.80;;
50104;SDS011;47690;39.202;-77.198;2022-11-20T16:42:55;1.75;;;1.65;;
50104;SDS011;47690;39.202;-77.198;2022-11-20T16:46:00;1.60;;;1.50;;
50104;SDS011;47690;39.202;-77.198;2022-11-20T16:49:10;1.77;;;1.67;;
50104;SDS011;47690;39.202;-77.198;2022-11-20T16:52:16;1.70;;;1.60;;
50104;SDS011;47690;39.202;-77.198;2022-11-20T16:55:20;2.00;;;1.80;;
50104;SDS011;47690;39.202;-77.198;2022-11-20T16:58:53;1.75;;;1.65;;
50104;SDS011;47690;39.202;-77.198;2022-11-20T17:02:00;1.95;;;1.80;;
50104;SDS011;47690;39.202;-77.198;2022-11-20T17:05:03;1.77;;;1.67;;
50104;SDS011;47690;39.202;-77.198;2022-11-20T17:08:07;1.60;;;1.50;;
50104;SDS011;47690;39.202;-77.198;2022-11-20T17:14:46;1.92;;;1.80;;
50104;SDS011;47690;39.202;-77.198;2022-11-20T17:17:50;3.42;;;1.70;;
50104;SDS011;47690;39.202;-77.198;2022-11-20T17:20:55;2.08;;;1.70;;
50104;SDS011;47690;39.202;-77.198;2022-11-20T17:24:04;1.77;;;1.67;;
50104;SDS011;47690;39.202;-77.198;2022-11-20T17:27:20;3.05;;;1.80;;
50104;SDS011;47690;39.202;-77.198;2022-11-20T17:30:38;1.67;;;1.58;;
50104;SDS011;47690;39.202;-77.198;2022-11-20T17:33:47;1.70;;;1.60;;
50104;SDS011;47690;39.202;-77.198;2022-11-20T17:37:03;1.57;;;1.50;;
50104;SDS011;47690;39.202;-77.198;2022-11-20T17:40:12;1.80;;;1.65;;
50104;SDS011;47690;39.202;-77.198;2022-11-20T17:43:25;1.80;;;1.70;;
50104;SDS011;47690;39.202;-77.198;2022-11-20T17:46:32;1.70;;;1.60;;
50104;SDS011;47690;39.202;-77.198;2022-11-20T17:53:23;1.70;;;1.60;;
50104;SDS011;47690;39.202;-77.198;2022-11-20T17:56:38;1.80;;;1.70;;
50104;SDS011;47690;39.202;-77.198;2022-11-20T18:00:11;2.10;;;1.90;;
50104;SDS011;47690;39.202;-77.198;2022-11-20T18:08:00;1.83;;;1.73;;
50104;SDS011;47690;39.202;-77.198;2022-11-20T18:31:33;1.60;;;1.50;;
50104;SDS011;47690;39.202;-77.198;2022-11-20T18:40:39;1.50;;;1.40;;
50104;SDS011;47690;39.202;-77.198;2022-11-20T18:44:17;1.70;;;1.60;;
50104;SDS011;47690;39.202;-77.198;2022-11-20T18:47:44;1.70;;;1.60;;
50104;SDS011;47690;39.202;-77.198;2022-11-20T18:51:31;1.70;;;1.60;;
50104;SDS011;47690;39.202;-77.198;2022-11-20T18:55:10;1.30;;;1.30;;
50104;SDS011;47690;39.202;-77.198;2022-11-20T18:58:16;1.60;;;1.50;;
50104;SDS011;47690;39.202;-77.198;2022-11-20T19:01:39;1.60;;;1.50;;
50104;SDS011;47690;39.202;-77.198;2022-11-20T19:05:08;1.90;;;1.70;;
50104;SDS011;47690;39.202;-77.198;2022-11-20T19:12:12;1.70;;;1.60;;
50104;SDS011;47690;39.202;-77.198;2022-11-20T19:15:44;1.40;;;1.40;;
50104;SDS011;47690;39.202;-77.198;2022-11-20T19:19:14;1.63;;;1.52;;
50104;SDS011;47690;39.202;-77.198;2022-11-20T19:29:23;1.38;;;1.33;;
50104;SDS011;47690;39.202;-77.198;2022-11-20T19:34:15;1.55;;;1.48;;
50104;SDS011;47690;39.202;-77.198;2022-11-20T19:38:51;1.30;;;1.30;;
50104;SDS011;47690;39.202;-77.198;2022-11-20T19:42:27;1.65;;;1.42;;
50104;SDS011;47690;39.202;-77.198;2022-11-20T19:47:02;1.60;;;1.50;;
50104;SDS011;47690;39.202;-77.198;2022-11-20T19:51:32;1.63;;;1.53;;
50104;SDS011;47690;39.202;-77.198;2022-11-20T20:00:40;1.50;;;1.40;;
50104;SDS011;47690;39.202;-77.198;2022-11-20T20:07:32;1.33;;;1.33;;
50104;SDS011;47690;39.202;-77.198;2022-11-20T20:40:35;1.67;;;1.52;;
50104;SDS011;47690;39.202;-77.198;2022-11-20T20:43:56;1.60;;;1.50;;
50104;SDS011;47690;39.202;-77.198;2022-11-20T20:47:28;1.50;;;1.40;;
50104;SDS011;47690;39.202;-77.198;2022-11-20T20:50:39;1.40;;;1.40;;
50104;SDS011;47690;39.202;-77.198;2022-11-20T20:54:06;1.30;;;1.30;;
50104;SDS011;47690;39.202;-77.198;2022-11-20T20:57:23;1.63;;;1.50;;
50104;SDS011;47690;39.202;-77.198;2022-11-20T21:04:52;1.20;;;1.20;;
50104;SDS011;47690;39.202;-77.198;2022-11-20T21:07:55;1.60;;;1.50;;
50104;SDS011;47690;39.202;-77.198;2022-11-20T21:11:19;1.40;;;1.40;;
50104;SDS011;47690;39.202;-77.198;2022-11-20T21:14:24;1.65;;;1.55;;
50104;SDS011;47690;39.202;-77.198;2022-11-20T21:28:04;1.48;;;1.38;;
50104;SDS011;47690;39.202;-77.198;2022-11-20T21:32:17;1.50;;;1.40;;
50104;SDS011;47690;39.202;-77.198;2022-11-20T21:36:51;1.40;;;1.27;;
50104;SDS011;47690;39.202;-77.198;2022-11-20T21:40:18;1.30;;;1.30;;
50104;SDS011;47690;39.202;-77.198;2022-11-20T21:43:31;1.10;;;1.10;;
50104;SDS011;47690;39.202;-77.198;2022-11-20T21:46:36;1.33;;;1.23;;
50104;SDS011;47690;39.202;-77.198;2022-11-20T21:49:39;1.70;;;1.60;;
50104;SDS011;47690;39.202;-77.198;2022-11-20T21:53:07;1.50;;;1.40;;
50104;SDS011;47690;39.202;-77.198;2022-11-20T21:56:03;1.13;;;1.13;;
50104;SDS011;47690;39.202;-77.198;2022-11-20T21:59:11;1.58;;;1.50;;
50104;SDS011;47690;39.202;-77.198;2022-11-20T22:02:27;1.20;;;1.20;;
50104;SDS011;47690;39.202;-77.198;2022-11-20T22:05:40;2.08;;;1.20;;
50104;SDS011;47690;39.202;-77.198;2022-11-20T22:08:47;1.50;;;1.40;;
50104;SDS011;47690;39.202;-77.198;2022-11-20T22:12:35;1.55;;;1.38;;
50104;SDS011;47690;39.202;-77.198;2022-11-20T22:15:52;1.50;;;1.40;;
50104;SDS011;47690;39.202;-77.198;2022-11-20T22:36:47;1.38;;;1.38;;
50104;SDS011;47690;39.202;-77.198;2022-11-20T22:39:57;1.40;;;1.33;;
50104;SDS011;47690;39.202;-77.198;2022-11-20T22:43:12;1.13;;;1.10;;
50104;SDS011;47690;39.202;-77.198;2022-11-20T22:46:26;1.17;;;1.17;;
50104;SDS011;47690;39.202;-77.198;2022-11-20T22:49:44;1.52;;;1.42;;
50104;SDS011;47690;39.202;-77.198;2022-11-20T22:52:52;1.20;;;1.20;;
50104;SDS011;47690;39.202;-77.198;2022-11-20T22:56:28;1.80;;;1.70;;
50104;SDS011;47690;39.202;-77.198;2022-11-20T23:04:07;2.38;;;1.80;;
50104;SDS011;47690;39.202;-77.198;2022-11-20T23:07:08;2.03;;;1.80;;
50104;SDS011;47690;39.202;-77.198;2022-11-20T23:10:19;1.60;;;1.50;;
50104;SDS011;47690;39.202;-77.198;2022-11-20T23:13:35;1.67;;;1.58;;
50104;SDS011;47690;39.202;-77.198;2022-11-20T23:31:59;2.40;;;1.95;;
50104;SDS011;47690;39.202;-77.198;2022-11-20T23:35:09;2.88;;;1.80;;
50104;SDS011;47690;39.202;-77.198;2022-11-20T23:38:15;2.10;;;1.90;;
50104;SDS011;47690;39.202;-77.198;2022-11-20T23:41:24;2.25;;;1.80;;
50104;SDS011;47690;39.202;-77.198;2022-11-20T23:44:31;1.80;;;1.70;;
50104;SDS011;47690;39.202;-77.198;2022-11-20T23:47:45;1.77;;;1.65;;
50104;SDS011;47690;39.202;-77.198;2022-11-20T23:50:56;2.10;;;1.83;;
